Time;durP1;ratioP1;P1;durP2;ratioP2;P2;SDS_P1;SDS_P2;PMS_P1;PMS_P2;Temp;Humidity;BMP_temperature;BMP_pressure;BME280_temperature;BME280_humidity;BME280_pressure;Samples;Min_cycle;Max_cycle;Signal;HPM_P1;HPM_P2
2021/10/17 00:02:22;;;;;;;26.85;21.15;;;8.20;99.90;;;;;;5017545;28;20057;-87
2021/10/17 00:04:47;;;;;;;26.70;21.02;;;8.20;99.90;;;;;;5012503;28;20029;-87
2021/10/17 00:07:14;;;;;;;28.48;20.85;;;8.20;99.90;;;;;;4998321;28;20029;-87
2021/10/17 00:09:40;;;;;;;26.02;20.63;;;8.10;99.90;;;;;;5018675;28;20026;-87
2021/10/17 00:12:08;;;;;;;28.38;20.85;;;8.60;99.90;;;;;;5019417;28;20030;-87
2021/10/17 00:14:34;;;;;;;29.63;21.52;;;8.10;99.90;;;;;;5019596;28;20091;-87
2021/10/17 00:17:00;;;;;;;26.27;20.30;;;8.10;99.90;;;;;;5017983;28;20509;-87
2021/10/17 00:19:26;;;;;;;25.60;19.85;;;8.10;99.90;;;;;;5017759;28;20445;-87
2021/10/17 00:21:51;;;;;;;29.45;21.27;;;8.40;99.90;;;;;;5019452;28;20026;-88
2021/10/17 00:24:17;;;;;;;28.77;21.90;;;8.00;99.90;;;;;;5019979;28;20053;-87
2021/10/17 00:26:43;;;;;;;29.10;20.77;;;8.00;99.90;;;;;;5002146;28;20398;-87
2021/10/17 00:29:08;;;;;;;29.30;22.33;;;8.00;99.90;;;;;;5018629;28;20025;-87
2021/10/17 00:31:34;;;;;;;30.73;21.90;;;8.40;99.90;;;;;;5016848;28;20041;-87
2021/10/17 00:34:00;;;;;;;28.60;21.38;;;8.00;99.90;;;;;;5018921;28;20038;-86
2021/10/17 00:36:27;;;;;;;32.25;21.65;;;8.00;99.90;;;;;;5021644;28;20112;-87
2021/10/17 00:38:53;;;;;;;29.38;22.30;;;8.00;99.90;;;;;;5019617;28;20081;-87
2021/10/17 00:41:19;;;;;;;33.63;22.35;;;8.10;99.90;;;;;;5021128;28;20057;-87
2021/10/17 00:43:46;;;;;;;29.48;22.27;;;8.10;99.90;;;;;;4998252;28;20057;-87
2021/10/17 00:46:17;;;;;;;30.70;22.08;;;8.00;99.90;;;;;;5025484;28;20022;-87
2021/10/17 00:48:43;;;;;;;29.17;22.70;;;8.30;99.90;;;;;;5003750;28;20089;-87
2021/10/17 00:51:09;;;;;;;32.15;22.27;;;8.10;99.90;;;;;;5019595;28;20450;-87
2021/10/17 00:53:35;;;;;;;31.45;22.83;;;8.10;99.90;;;;;;4999697;28;20052;-87
2021/10/17 00:56:00;;;;;;;28.65;22.38;;;8.20;99.90;;;;;;5030415;28;20561;-87
2021/10/17 00:58:26;;;;;;;33.47;23.65;;;8.10;99.90;;;;;;5033436;28;20022;-87
2021/10/17 01:00:52;;;;;;;29.75;23.63;;;8.00;99.90;;;;;;5018814;28;20395;-87
2021/10/17 01:03:17;;;;;;;29.23;22.58;;;8.00;99.90;;;;;;5005784;28;20060;-87
2021/10/17 01:05:43;;;;;;;32.70;23.52;;;8.00;99.90;;;;;;5027106;28;20025;-87
2021/10/17 01:08:09;;;;;;;33.60;24.13;;;8.00;99.90;;;;;;5017991;28;20029;-87
2021/10/17 01:10:34;;;;;;;30.13;23.23;;;8.00;99.90;;;;;;5016252;28;20960;-87
2021/10/17 01:13:00;;;;;;;31.75;24.73;;;8.10;99.90;;;;;;5018286;28;20037;-87
2021/10/17 01:15:26;;;;;;;31.40;23.17;;;8.20;99.90;;;;;;5001441;28;20073;-87
2021/10/17 01:17:51;;;;;;;29.50;21.98;;;8.10;99.90;;;;;;5018899;28;20029;-87
2021/10/17 01:20:17;;;;;;;27.52;21.77;;;8.00;99.90;;;;;;5018991;28;20021;-87
2021/10/17 01:22:43;;;;;;;26.50;20.70;;;8.20;99.90;;;;;;4996982;28;20149;-87
2021/10/17 01:25:09;;;;;;;27.42;20.55;;;7.80;99.90;;;;;;5000794;28;20116;-87
2021/10/17 01:27:35;;;;;;;30.35;21.58;;;7.60;99.90;;;;;;5003680;28;20433;-87
2021/10/17 01:30:02;;;;;;;27.63;21.65;;;7.70;99.90;;;;;;5018733;28;20034;-87
2021/10/17 01:32:28;;;;;;;28.85;21.90;;;7.50;99.90;;;;;;5018660;28;20073;-87
2021/10/17 01:34:54;;;;;;;26.90;21.02;;;7.50;99.90;;;;;;5015812;28;20073;-87
2021/10/17 01:37:19;;;;;;;27.88;20.17;;;8.10;99.90;;;;;;5017126;28;20474;-87
2021/10/17 01:39:45;;;;;;;27.92;21.00;;;7.80;99.90;;;;;;5018371;28;20029;-87
2021/10/17 01:42:11;;;;;;;27.00;20.48;;;8.10;99.90;;;;;;5000729;28;20033;-87
2021/10/17 01:44:37;;;;;;;27.02;21.23;;;7.80;99.90;;;;;;5019816;28;20030;-88
2021/10/17 01:47:05;;;;;;;26.27;21.25;;;7.80;99.90;;;;;;5017154;28;20451;-87
2021/10/17 01:49:31;;;;;;;28.20;20.90;;;8.10;99.90;;;;;;5015231;28;20046;-87
2021/10/17 01:51:57;;;;;;;26.17;20.13;;;7.70;99.90;;;;;;5019667;28;20026;-87
2021/10/17 01:54:23;;;;;;;25.65;19.35;;;7.60;99.90;;;;;;5018976;28;20048;-87
2021/10/17 01:56:49;;;;;;;25.27;20.02;;;7.90;99.90;;;;;;5018746;28;20040;-87
2021/10/17 01:59:15;;;;;;;28.60;20.67;;;7.50;99.90;;;;;;5018629;28;20456;-87
2021/10/17 02:01:41;;;;;;;24.95;18.77;;;7.50;99.90;;;;;;5014561;28;20018;-88
2021/10/17 02:04:06;;;;;;;24.83;19.20;;;7.40;99.90;;;;;;5000170;28;20466;-87
2021/10/17 02:06:33;;;;;;;24.95;19.02;;;7.70;99.90;;;;;;5000625;28;20045;-88
2021/10/17 02:09:00;;;;;;;26.40;20.20;;;7.30;99.90;;;;;;5023600;28;20034;-87
2021/10/17 02:11:25;;;;;;;26.95;19.38;;;7.30;99.90;;;;;;5027909;28;20029;-87
2021/10/17 02:13:51;;;;;;;26.00;20.08;;;7.20;99.90;;;;;;5014141;28;20111;-87
2021/10/17 02:16:17;;;;;;;30.00;20.23;;;7.30;99.90;;;;;;5016287;28;20036;-88
2021/10/17 02:18:42;;;;;;;29.80;20.83;;;7.30;99.90;;;;;;5000734;28;20033;-88
2021/10/17 02:21:09;;;;;;;27.38;20.23;;;7.40;99.90;;;;;;5017738;28;20072;-87
2021/10/17 02:23:35;;;;;;;28.35;21.55;;;7.30;99.90;;;;;;5019215;28;20029;-87
2021/10/17 02:26:01;;;;;;;27.70;19.77;;;7.50;99.90;;;;;;4998162;28;20411;-87
2021/10/17 02:28:27;;;;;;;24.63;18.33;;;7.20;99.90;;;;;;4997714;28;20037;-87
2021/10/17 02:30:52;;;;;;;25.52;18.90;;;7.30;99.90;;;;;;5017204;28;20093;-87
2021/10/17 02:33:18;;;;;;;25.75;19.23;;;7.30;99.90;;;;;;4999992;28;20026;-87
2021/10/17 02:35:44;;;;;;;25.77;19.55;;;7.20;99.90;;;;;;5018131;28;20037;-88
2021/10/17 02:38:09;;;;;;;27.42;19.17;;;7.20;99.90;;;;;;5017896;28;20494;-87
2021/10/17 02:40:35;;;;;;;27.05;19.48;;;7.20;99.90;;;;;;4997331;28;20125;-87
2021/10/17 02:43:01;;;;;;;25.45;19.73;;;7.20;99.90;;;;;;5018043;28;20050;-88
2021/10/17 02:45:27;;;;;;;27.55;19.65;;;7.20;99.90;;;;;;5002400;28;20156;-87
2021/10/17 02:47:53;;;;;;;29.33;20.60;;;7.20;99.90;;;;;;5017074;28;20026;-88
2021/10/17 02:50:18;;;;;;;26.48;19.70;;;7.10;99.90;;;;;;5017886;28;20108;-87
2021/10/17 02:52:44;;;;;;;25.02;19.65;;;7.40;99.90;;;;;;5010935;28;20116;-87
2021/10/17 02:55:10;;;;;;;26.17;19.23;;;7.30;99.90;;;;;;5016595;28;20489;-87
2021/10/17 02:57:35;;;;;;;27.15;19.60;;;7.10;99.90;;;;;;5029238;28;20498;-87
2021/10/17 03:00:01;;;;;;;26.30;20.15;;;7.10;99.90;;;;;;5028547;28;20459;-87
2021/10/17 03:02:26;;;;;;;27.83;20.75;;;7.10;99.90;;;;;;5008523;28;20029;-88
2021/10/17 03:04:52;;;;;;;28.48;21.17;;;7.40;99.90;;;;;;5015768;28;20075;-87
2021/10/17 03:07:18;;;;;;;26.98;21.08;;;7.10;99.90;;;;;;5015651;28;20053;-88
2021/10/17 03:09:43;;;;;;;25.48;19.95;;;7.20;99.90;;;;;;5017011;28;20062;-87
2021/10/17 03:12:09;;;;;;;28.45;21.08;;;7.10;99.90;;;;;;5017005;28;20034;-87
2021/10/17 03:14:34;;;;;;;26.80;20.55;;;7.20;99.90;;;;;;4998003;28;20463;-87
2021/10/17 03:17:00;;;;;;;27.83;19.92;;;7.20;99.90;;;;;;5010598;28;20480;-87
2021/10/17 03:19:25;;;;;;;26.00;20.40;;;7.30;99.90;;;;;;5014852;28;20096;-87
2021/10/17 03:21:51;;;;;;;27.48;19.83;;;7.30;99.90;;;;;;4999323;28;20026;-88
2021/10/17 03:24:17;;;;;;;27.90;19.98;;;7.30;99.90;;;;;;4999293;28;20040;-87
2021/10/17 03:26:42;;;;;;;26.67;19.83;;;7.10;99.90;;;;;;5003030;28;20033;-88
2021/10/17 03:29:08;;;;;;;27.00;19.25;;;7.40;99.90;;;;;;5028262;28;20025;-87
2021/10/17 03:31:37;;;;;;;27.25;19.40;;;7.50;99.90;;;;;;5013684;28;20072;-88
2021/10/17 03:34:03;;;;;;;24.85;18.70;;;7.50;99.90;;;;;;5017211;28;20069;-87
2021/10/17 03:36:29;;;;;;;25.60;18.85;;;7.50;99.90;;;;;;5017018;28;20471;-88
2021/10/17 03:38:54;;;;;;;28.50;19.80;;;7.50;99.90;;;;;;4999098;28;20061;-88
2021/10/17 03:41:20;;;;;;;29.25;20.80;;;7.20;99.90;;;;;;4999393;28;20473;-88
2021/10/17 03:43:45;;;;;;;25.40;19.33;;;7.10;99.90;;;;;;5013902;28;20049;-88
2021/10/17 03:46:11;;;;;;;27.27;19.23;;;6.70;99.90;;;;;;5016427;28;20063;-88
2021/10/17 03:48:37;;;;;;;26.33;20.35;;;6.70;99.90;;;;;;5021299;28;20033;-88
2021/10/17 03:51:08;;;;;;;29.40;19.73;;;6.70;99.90;;;;;;5009296;28;20051;-87
2021/10/17 03:53:36;;;;;;;24.63;18.63;;;7.10;99.90;;;;;;5029299;28;20528;-87
2021/10/17 03:56:02;;;;;;;25.33;18.70;;;6.80;99.90;;;;;;5001910;28;20029;-87
2021/10/17 03:58:28;;;;;;;25.13;18.52;;;6.70;99.90;;;;;;5018653;28;20101;-87
2021/10/17 04:00:54;;;;;;;24.98;18.15;;;6.60;99.90;;;;;;5020002;28;20482;-87
2021/10/17 04:03:19;;;;;;;23.88;17.88;;;6.60;99.90;;;;;;5022611;28;20034;-87
2021/10/17 04:05:45;;;;;;;24.02;18.15;;;6.70;99.90;;;;;;5020389;28;20049;-87
2021/10/17 04:08:10;;;;;;;22.27;17.58;;;6.70;99.90;;;;;;5020792;28;20040;-87
2021/10/17 04:10:36;;;;;;;23.00;17.98;;;6.70;99.90;;;;;;5033057;28;20513;-87
2021/10/17 04:13:02;;;;;;;22.88;17.55;;;6.70;99.90;;;;;;5002010;28;20034;-87
2021/10/17 04:15:28;;;;;;;24.75;18.58;;;7.00;99.90;;;;;;5002736;28;20041;-88
2021/10/17 04:17:53;;;;;;;25.38;18.30;;;6.50;99.90;;;;;;5020620;28;20033;-86
2021/10/17 04:20:19;;;;;;;23.60;17.15;;;6.60;99.90;;;;;;5019999;28;20497;-87
2021/10/17 04:22:44;;;;;;;22.00;17.10;;;6.50;99.90;;;;;;4998354;28;20052;-88
2021/10/17 04:25:10;;;;;;;26.73;18.40;;;6.40;99.90;;;;;;5019815;28;20468;-87
2021/10/17 04:27:36;;;;;;;22.25;16.90;;;6.40;99.90;;;;;;5021563;28;20045;-87
2021/10/17 04:30:04;;;;;;;21.73;16.17;;;6.50;99.90;;;;;;5002377;28;20502;-88
2021/10/17 04:32:30;;;;;;;22.80;17.40;;;6.50;99.90;;;;;;5020511;28;20025;-88
2021/10/17 04:34:56;;;;;;;25.20;18.50;;;6.50;99.90;;;;;;5017714;28;20045;-88
2021/10/17 04:37:21;;;;;;;25.67;18.77;;;6.90;99.90;;;;;;5018149;28;20046;-87
2021/10/17 04:39:47;;;;;;;25.13;18.02;;;6.50;99.90;;;;;;5009877;28;20099;-88
2021/10/17 04:42:13;;;;;;;23.95;18.60;;;6.50;99.90;;;;;;5004582;28;20037;-87
2021/10/17 04:44:39;;;;;;;23.05;17.92;;;6.60;99.90;;;;;;5002809;28;20044;-87
2021/10/17 04:47:05;;;;;;;23.63;17.73;;;7.00;99.90;;;;;;5019191;28;20040;-88
2021/10/17 04:49:31;;;;;;;24.05;17.42;;;6.50;99.90;;;;;;4998432;28;20434;-88
2021/10/17 04:51:56;;;;;;;24.45;17.60;;;6.70;99.90;;;;;;5016977;28;20022;-88
2021/10/17 04:54:22;;;;;;;22.95;17.63;;;6.60;99.90;;;;;;5003583;28;20128;-87
2021/10/17 04:56:48;;;;;;;25.27;18.58;;;6.60;99.90;;;;;;5001840;28;20032;-87
2021/10/17 04:59:16;;;;;;;26.08;18.95;;;6.70;99.90;;;;;;5018564;28;20037;-88
2021/10/17 05:01:42;;;;;;;24.25;19.17;;;6.50;99.90;;;;;;5016324;28;20026;-88
2021/10/17 05:04:08;;;;;;;23.70;17.92;;;6.60;99.90;;;;;;5018244;28;20029;-88
2021/10/17 05:06:34;;;;;;;22.75;18.10;;;6.60;99.90;;;;;;5019960;28;20104;-88
2021/10/17 05:08:59;;;;;;;23.30;17.13;;;6.90;99.90;;;;;;5020896;28;20494;-87
2021/10/17 05:11:25;;;;;;;21.40;17.13;;;7.40;99.90;;;;;;5019921;28;20548;-88
2021/10/17 05:13:52;;;;;;;21.65;16.55;;;6.80;99.90;;;;;;5032012;28;20410;-88
2021/10/17 05:16:17;;;;;;;22.48;16.55;;;6.90;99.90;;;;;;5017704;28;20021;-87
2021/10/17 05:18:43;;;;;;;21.67;15.27;;;6.90;99.90;;;;;;5001475;28;20405;-88
2021/10/17 05:21:09;;;;;;;23.55;16.40;;;6.80;99.90;;;;;;5019645;28;20033;-88
2021/10/17 05:23:35;;;;;;;27.13;16.27;;;6.90;99.90;;;;;;5019160;28;20151;-88
2021/10/17 05:26:03;;;;;;;22.00;16.90;;;7.40;99.90;;;;;;5016475;28;20109;-87
2021/10/17 05:28:29;;;;;;;27.40;17.45;;;7.00;99.90;;;;;;5017264;28;20471;-87
2021/10/17 05:30:55;;;;;;;26.85;16.65;;;7.00;99.90;;;;;;5018241;28;20026;-87
2021/10/17 05:33:20;;;;;;;25.15;16.52;;;7.10;99.90;;;;;;5018760;28;20491;-87
2021/10/17 05:35:46;;;;;;;25.40;17.55;;;7.10;99.90;;;;;;5018612;28;20026;-88
2021/10/17 05:38:12;;;;;;;25.10;17.58;;;7.20;99.90;;;;;;5018132;28;20033;-87
2021/10/17 05:40:38;;;;;;;28.80;18.15;;;7.20;99.90;;;;;;5015268;28;20504;-87
2021/10/17 05:43:03;;;;;;;30.20;18.65;;;7.10;99.90;;;;;;5032476;28;20421;-88
2021/10/17 05:45:30;;;;;;;27.58;18.83;;;7.30;99.90;;;;;;5001433;28;20422;-88
2021/10/17 05:47:56;;;;;;;28.98;19.45;;;7.60;99.90;;;;;;5000751;28;20026;-87
2021/10/17 05:50:21;;;;;;;36.72;20.52;;;7.20;99.90;;;;;;5001232;28;20084;-88
2021/10/17 05:52:47;;;;;;;32.80;20.33;;;7.70;99.90;;;;;;4997750;28;20402;-88
2021/10/17 05:55:13;;;;;;;35.30;19.10;;;7.70;99.90;;;;;;5018121;28;20038;-88
2021/10/17 05:57:39;;;;;;;33.70;18.33;;;7.60;99.90;;;;;;5002324;28;20057;-87
2021/10/17 06:00:06;;;;;;;31.55;18.23;;;7.00;99.90;;;;;;5018197;28;20030;-88
2021/10/17 06:02:31;;;;;;;33.75;18.55;;;7.10;99.90;;;;;;5017801;28;20022;-87
2021/10/17 06:04:57;;;;;;;28.95;17.75;;;7.20;99.90;;;;;;4997806;28;20030;-87
2021/10/17 06:07:23;;;;;;;52.55;18.58;;;7.50;99.90;;;;;;5016290;28;20026;-87
2021/10/17 06:09:48;;;;;;;35.83;17.45;;;7.20;99.90;;;;;;4998864;28;20057;-88
2021/10/17 06:12:14;;;;;;;45.88;17.35;;;7.20;99.90;;;;;;5002138;28;20504;-88
2021/10/17 06:14:39;;;;;;;79.25;18.50;;;7.30;99.90;;;;;;5017883;28;20049;-88
2021/10/17 06:17:05;;;;;;;30.88;17.30;;;7.20;99.90;;;;;;5017923;28;20032;-88
2021/10/17 06:19:31;;;;;;;43.88;16.98;;;7.30;99.90;;;;;;5016318;28;20029;-88
2021/10/17 06:21:57;;;;;;;32.75;16.60;;;7.40;99.90;;;;;;5015263;28;20033;-87
2021/10/17 06:24:23;;;;;;;26.85;17.80;;;7.30;99.90;;;;;;5019193;28;20597;-88
2021/10/17 06:26:49;;;;;;;32.80;16.70;;;7.40;99.90;;;;;;5000275;28;20116;-87
2021/10/17 06:29:14;;;;;;;36.85;17.05;;;7.50;99.90;;;;;;5017385;28;20033;-87
2021/10/17 06:31:40;;;;;;;32.40;17.38;;;7.60;99.90;;;;;;4996774;28;20494;-87
2021/10/17 06:34:06;;;;;;;30.63;17.48;;;8.00;99.90;;;;;;5017858;28;20040;-88
2021/10/17 06:36:32;;;;;;;27.52;16.88;;;8.10;99.90;;;;;;5018041;28;20025;-88
2021/10/17 06:38:58;;;;;;;23.35;15.45;;;7.70;99.90;;;;;;5017453;28;20097;-88
2021/10/17 06:41:24;;;;;;;32.15;17.48;;;7.90;99.90;;;;;;5017834;28;20026;-88
2021/10/17 06:43:49;;;;;;;28.20;16.88;;;7.80;99.90;;;;;;4995880;28;20472;-87
2021/10/17 06:46:15;;;;;;;33.42;15.68;;;7.80;99.90;;;;;;5016529;28;20060;-88
2021/10/17 06:48:41;;;;;;;29.70;15.40;;;8.10;99.90;;;;;;4999756;28;20029;-88
2021/10/17 06:51:06;;;;;;;21.42;15.30;;;8.30;99.90;;;;;;5000053;28;20029;-87
2021/10/17 06:53:32;;;;;;;20.95;14.55;;;8.00;99.90;;;;;;5017187;28;20401;-88
2021/10/17 06:55:57;;;;;;;25.70;15.98;;;8.00;99.90;;;;;;4996826;28;20022;-88
2021/10/17 06:58:23;;;;;;;19.70;14.15;;;8.20;99.90;;;;;;5015128;28;20033;-88
2021/10/17 07:00:49;;;;;;;21.40;14.30;;;8.20;99.90;;;;;;5017429;28;20057;-87
2021/10/17 07:03:14;;;;;;;20.77;14.45;;;8.30;99.90;;;;;;5017763;28;20026;-88
2021/10/17 07:05:40;;;;;;;22.63;13.55;;;8.40;99.90;;;;;;5001851;28;20486;-88
2021/10/17 07:08:05;;;;;;;21.45;15.07;;;8.40;99.90;;;;;;5015081;28;20034;-87
2021/10/17 07:10:31;;;;;;;22.92;15.18;;;8.70;99.90;;;;;;5014199;28;20034;-88
2021/10/17 07:12:57;;;;;;;27.92;14.40;;;8.60;99.90;;;;;;4996339;28;20368;-87
2021/10/17 07:15:22;;;;;;;22.42;13.88;;;8.90;99.90;;;;;;5017434;28;20034;-87
2021/10/17 07:17:48;;;;;;;21.58;15.10;;;8.60;99.90;;;;;;5017377;28;20112;-88
2021/10/17 07:20:13;;;;;;;21.00;15.00;;;8.50;99.90;;;;;;5016392;28;20021;-87
2021/10/17 07:22:39;;;;;;;27.58;15.30;;;8.60;99.90;;;;;;5014426;28;20030;-88
2021/10/17 07:25:05;;;;;;;25.33;15.07;;;9.00;99.90;;;;;;5017171;28;20116;-88
2021/10/17 07:27:30;;;;;;;21.33;14.85;;;8.90;99.90;;;;;;5018894;28;20028;-88
2021/10/17 07:29:56;;;;;;;25.38;14.90;;;8.80;99.90;;;;;;4999175;28;20088;-87
2021/10/17 07:32:22;;;;;;;23.92;14.32;;;8.90;99.90;;;;;;5017144;28;20017;-88
2021/10/17 07:34:47;;;;;;;22.33;14.50;;;8.90;99.90;;;;;;5012495;28;20053;-87
2021/10/17 07:37:13;;;;;;;23.38;15.25;;;9.00;99.90;;;;;;5021700;28;20032;-88
2021/10/17 07:39:39;;;;;;;29.00;15.93;;;9.40;99.90;;;;;;5023565;28;20032;-87
2021/10/17 07:42:04;;;;;;;24.42;14.40;;;9.10;99.90;;;;;;5021532;28;20477;-88
2021/10/17 07:44:31;;;;;;;27.50;15.05;;;9.40;99.90;;;;;;4980381;28;20461;-88
2021/10/17 07:46:57;;;;;;;23.48;15.85;;;9.30;99.90;;;;;;4995039;28;20038;-87
2021/10/17 07:49:23;;;;;;;26.55;16.25;;;9.80;99.90;;;;;;4977540;28;20080;-87
2021/10/17 07:51:48;;;;;;;21.20;15.32;;;9.80;99.90;;;;;;4980748;28;20499;-87
2021/10/17 07:54:14;;;;;;;28.17;15.55;;;10.00;99.90;;;;;;4997431;28;20065;-86
2021/10/17 07:56:39;;;;;;;29.33;16.02;;;10.00;99.90;;;;;;4996744;28;20129;-87
2021/10/17 07:59:05;;;;;;;40.92;16.40;;;10.40;99.90;;;;;;4995320;28;20061;-87
2021/10/17 08:01:31;;;;;;;31.40;18.35;;;9.80;99.90;;;;;;4994710;28;20399;-87
2021/10/17 08:03:57;;;;;;;31.98;17.27;;;10.00;99.90;;;;;;4978727;28;20027;-88
2021/10/17 08:06:22;;;;;;;27.85;18.58;;;10.30;99.90;;;;;;4996819;28;20046;-87
2021/10/17 08:08:48;;;;;;;26.65;16.48;;;10.10;99.90;;;;;;4996772;28;20049;-88
2021/10/17 08:11:16;;;;;;;29.73;17.52;;;10.40;99.90;;;;;;4995769;28;20025;-87
2021/10/17 08:13:41;;;;;;;27.77;16.58;;;10.30;99.90;;;;;;4975684;28;20048;-87
2021/10/17 08:16:07;;;;;;;29.10;17.95;;;10.80;99.90;;;;;;4995927;28;20022;-87
2021/10/17 08:18:33;;;;;;;25.40;17.40;;;10.50;99.90;;;;;;4997121;28;20483;-87
2021/10/17 08:20:58;;;;;;;29.48;17.98;;;10.70;99.90;;;;;;4996594;28;20129;-87
2021/10/17 08:23:24;;;;;;;25.50;17.70;;;10.90;99.90;;;;;;4998129;28;20032;-87
2021/10/17 08:25:49;;;;;;;32.30;17.30;;;11.10;99.90;;;;;;4992819;28;20025;-88
2021/10/17 08:28:15;;;;;;;29.70;18.35;;;10.70;99.90;;;;;;4996068;28;20026;-87
2021/10/17 08:30:44;;;;;;;33.08;18.75;;;11.00;99.90;;;;;;4997918;28;20042;-87
2021/10/17 08:33:10;;;;;;;33.13;18.85;;;11.10;99.90;;;;;;4998593;28;20042;-87
2021/10/17 08:35:35;;;;;;;30.95;18.80;;;11.00;99.90;;;;;;5000160;28;20041;-88
2021/10/17 08:38:01;;;;;;;31.15;18.60;;;11.10;99.90;;;;;;4997979;28;20049;-87
2021/10/17 08:40:27;;;;;;;34.53;19.02;;;11.30;99.90;;;;;;4997714;28;20100;-87
2021/10/17 08:42:52;;;;;;;30.23;18.60;;;11.50;99.90;;;;;;5006015;28;20073;-87
2021/10/17 08:45:18;;;;;;;25.70;18.95;;;11.30;99.90;;;;;;5003284;28;20029;-88
2021/10/17 08:47:45;;;;;;;29.30;18.80;;;11.70;99.90;;;;;;5002214;28;20030;-88
2021/10/17 08:50:10;;;;;;;28.73;18.73;;;11.70;99.90;;;;;;5019896;28;20031;-87
2021/10/17 08:52:36;;;;;;;26.05;18.15;;;11.90;99.90;;;;;;5017043;28;20026;-88
2021/10/17 08:55:02;;;;;;;23.70;17.45;;;12.20;99.90;;;;;;5002301;28;20034;-87
2021/10/17 08:57:27;;;;;;;23.85;17.15;;;12.40;99.90;;;;;;5024080;28;20037;-88
2021/10/17 08:59:54;;;;;;;24.17;17.13;;;13.00;99.90;;;;;;5025937;28;20034;-88
2021/10/17 09:02:23;;;;;;;23.80;17.13;;;13.20;99.90;;;;;;5019201;28;20079;-87
2021/10/17 09:05:07;;;;;;;23.38;17.27;;;13.70;99.90;;;;;;4999520;28;20482;-88
2021/10/17 09:07:32;;;;;;;22.73;17.17;;;13.80;99.90;;;;;;5014794;28;20046;-87
2021/10/17 09:10:16;;;;;;;23.92;18.10;;;15.10;99.90;;;;;;4992867;28;20127;-88
2021/10/17 09:12:44;;;;;;;21.65;16.48;;;15.20;99.90;;;;;;5018856;28;20429;-87
2021/10/17 09:15:31;;;;;;;23.77;16.70;;;14.10;99.90;;;;;;5001922;28;20042;-88
2021/10/17 09:18:15;;;;;;;22.55;17.38;;;14.40;99.90;;;;;;5018721;28;20034;-87
2021/10/17 09:20:46;;;;;;;22.65;17.38;;;15.00;99.90;;;;;;5018595;28;20503;-87
2021/10/17 09:23:22;;;;;;;24.08;17.55;;;15.30;99.90;;;;;;5017587;28;20028;-87
2021/10/17 09:25:49;;;;;;;22.27;17.77;;;15.00;99.90;;;;;;4999524;28;20542;-87
2021/10/17 09:28:17;;;;;;;23.48;17.83;;;15.10;99.90;;;;;;5007317;28;20033;-87
2021/10/17 09:30:55;;;;;;;24.08;17.63;;;14.80;99.90;;;;;;5018748;28;20105;-87
2021/10/17 09:33:21;;;;;;;22.95;17.58;;;14.40;99.90;;;;;;5000927;28;20050;-87
2021/10/17 09:35:47;;;;;;;23.65;18.38;;;15.20;99.90;;;;;;5017609;28;20486;-83
2021/10/17 09:38:16;;;;;;;23.15;17.63;;;15.50;99.90;;;;;;5017015;28;20084;-84
2021/10/17 09:40:44;;;;;;;23.45;18.13;;;15.70;99.90;;;;;;5014989;28;20090;-86
2021/10/17 09:43:23;;;;;;;23.65;18.13;;;16.40;99.90;;;;;;5000051;28;20132;-86
2021/10/17 09:45:49;;;;;;;22.75;17.55;;;16.20;99.90;;;;;;5000637;28;20069;-87
2021/10/17 09:48:31;;;;;;;22.70;18.30;;;16.80;99.90;;;;;;5027606;28;20417;-89
2021/10/17 09:51:10;;;;;;;24.10;18.08;;;17.90;99.90;;;;;;5026439;28;20093;-95
2021/10/17 09:53:46;;;;;;;22.95;18.27;;;17.80;99.90;;;;;;4999337;28;20125;-88
2021/10/17 09:56:27;;;;;;;22.15;18.20;;;17.70;99.90;;;;;;5018204;28;20079;-94
2021/10/17 09:58:53;;;;;;;21.88;17.70;;;19.00;99.90;;;;;;5012666;28;20076;-93
2021/10/17 10:01:23;;;;;;;22.20;17.35;;;19.40;99.90;;;;;;4999803;28;20026;-94
2021/10/17 10:03:51;;;;;;;22.67;17.80;;;19.60;99.90;;;;;;5001941;28;20096;-86
2021/10/17 10:06:17;;;;;;;20.45;17.15;;;22.50;99.90;;;;;;5029189;28;20033;-90
2021/10/17 10:08:44;;;;;;;21.50;16.63;;;24.50;99.90;;;;;;5010352;28;20121;-89
2021/10/17 10:11:11;;;;;;;19.70;16.67;;;26.50;99.90;;;;;;5020006;28;20017;-93
2021/10/17 10:13:38;;;;;;;19.63;16.52;;;27.70;99.90;;;;;;5018535;28;20057;-89
2021/10/17 10:16:05;;;;;;;17.92;16.00;;;29.20;99.90;;;;;;5018559;28;20038;-89
2021/10/17 10:18:32;;;;;;;17.63;15.82;;;29.80;99.90;;;;;;5020236;28;20491;-89
2021/10/17 10:20:58;;;;;;;17.45;15.65;;;32.10;99.90;;;;;;5000736;28;20029;-94
2021/10/17 10:23:25;;;;;;;18.00;16.13;;;32.10;99.90;;;;;;5017687;28;20021;-88
2021/10/17 10:25:52;;;;;;;17.83;16.02;;;33.60;99.90;;;;;;5015979;28;20026;-88
2021/10/17 10:28:20;;;;;;;16.90;15.18;;;34.40;99.90;;;;;;5016916;28;20022;-89
2021/10/17 10:30:45;;;;;;;18.55;16.65;;;34.90;99.90;;;;;;5020053;28;20026;-91
2021/10/17 10:33:14;;;;;;;18.05;16.25;;;34.50;99.90;;;;;;5017677;28;20029;-92
2021/10/17 10:36:00;;;;;;;17.58;15.90;;;35.20;99.90;;;;;;5004603;28;20030;-93
2021/10/17 10:38:48;;;;;;;17.67;15.98;;;35.20;99.90;;;;;;5028416;28;20051;-89
2021/10/17 10:41:15;;;;;;;17.08;15.48;;;34.30;99.90;;;;;;5017643;28;20017;-92
2021/10/17 10:43:41;;;;;;;17.80;16.10;;;34.60;99.90;;;;;;5031043;28;20133;-95
2021/10/17 10:46:07;;;;;;;17.67;15.98;;;35.90;99.90;;;;;;5019380;28;20054;-95
2021/10/17 10:48:45;;;;;;;17.30;15.60;;;35.90;99.90;;;;;;5028175;28;20037;-90
2021/10/17 10:51:31;;;;;;;17.48;15.82;;;36.90;99.90;;;;;;5004016;28;20117;-96
2021/10/17 10:53:58;;;;;;;17.75;16.15;;;36.60;99.90;;;;;;5027284;28;20061;-95
2021/10/17 10:56:45;;;;;;;16.98;15.27;;;37.10;99.90;;;;;;5033438;28;20044;-96
2021/10/17 10:59:16;;;;;;;17.75;15.90;;;37.90;99.90;;;;;;5030444;28;20033;-88
2021/10/17 11:01:51;;;;;;;18.02;16.33;;;38.20;99.90;;;;;;5012690;28;20037;-88
2021/10/17 11:04:42;;;;;;;17.60;16.00;;;38.20;99.90;;;;;;5024559;28;20023;-89
2021/10/17 11:07:23;;;;;;;16.73;15.23;;;37.90;99.90;;;;;;5016329;28;20402;-90
2021/10/17 11:09:51;;;;;;;18.08;16.23;;;37.60;99.90;;;;;;4999908;28;20034;-90
2021/10/17 11:12:39;;;;;;;17.17;15.68;;;37.90;99.90;;;;;;5016726;28;20045;-92
2021/10/17 11:15:10;;;;;;;15.65;14.30;;;37.40;99.90;;;;;;4999499;28;20053;-95
2021/10/17 11:17:36;;;;;;;16.20;14.80;;;37.60;99.90;;;;;;4999577;28;20022;-88
2021/10/17 11:20:04;;;;;;;15.35;13.95;;;37.50;99.90;;;;;;5014435;28;20045;-88
2021/10/17 11:22:34;;;;;;;16.08;14.57;;;38.10;99.90;;;;;;4996733;28;20049;-87
2021/10/17 11:25:01;;;;;;;15.75;14.45;;;37.30;99.90;;;;;;5008195;28;20025;-87
2021/10/17 11:27:26;;;;;;;15.60;14.20;;;38.20;99.90;;;;;;5016564;28;20034;-87
2021/10/17 11:29:52;;;;;;;16.52;15.05;;;38.20;99.90;;;;;;5016369;28;20059;-87
2021/10/17 11:32:18;;;;;;;14.93;13.57;;;38.00;99.90;;;;;;5016730;28;20037;-88
2021/10/17 11:35:04;;;;;;;15.00;13.60;;;38.10;99.90;;;;;;5011923;28;20064;-87
2021/10/17 11:37:32;;;;;;;14.07;12.88;;;38.20;99.90;;;;;;5026085;28;20049;-87
2021/10/17 11:40:06;;;;;;;13.18;12.07;;;37.70;99.90;;;;;;5013904;28;20022;-87
2021/10/17 11:42:53;;;;;;;12.75;11.63;;;36.90;99.90;;;;;;5016265;28;20568;-88
2021/10/17 11:45:22;;;;;;;12.88;11.75;;;37.60;99.90;;;;;;5017775;28;20107;-88
2021/10/17 11:47:49;;;;;;;14.10;12.80;;;37.40;99.90;;;;;;5016173;28;20026;-87
2021/10/17 11:50:35;;;;;;;13.40;12.20;;;37.50;99.90;;;;;;5015256;28;20499;-87
2021/10/17 11:53:06;;;;;;;13.20;12.05;;;37.70;99.90;;;;;;5000572;28;20046;-87
2021/10/17 11:55:35;;;;;;;13.43;12.23;;;37.30;99.90;;;;;;5014281;28;20552;-88
2021/10/17 11:58:01;;;;;;;13.60;12.30;;;37.70;99.90;;;;;;5015994;28;20052;-87
2021/10/17 12:00:29;;;;;;;11.70;10.70;;;38.10;99.90;;;;;;5016232;28;20048;-87
2021/10/17 12:02:55;;;;;;;12.30;11.10;;;36.60;99.90;;;;;;5016305;28;20045;-87
2021/10/17 12:05:24;;;;;;;11.52;10.63;;;36.80;99.90;;;;;;5016195;28;20096;-86
2021/10/17 12:07:57;;;;;;;12.13;10.98;;;36.50;99.90;;;;;;5013287;28;20029;-87
2021/10/17 12:10:26;;;;;;;11.38;10.30;;;36.90;99.90;;;;;;5017860;28;20616;-87
2021/10/17 12:12:57;;;;;;;11.77;10.73;;;37.60;99.90;;;;;;5020540;28;20113;-86
2021/10/17 12:15:23;;;;;;;12.50;11.43;;;37.30;99.90;;;;;;5020346;28;20037;-86
2021/10/17 12:17:56;;;;;;;11.68;10.60;;;37.70;99.90;;;;;;5019592;28;20084;-87
2021/10/17 12:20:22;;;;;;;11.63;10.52;;;37.30;99.90;;;;;;5019618;28;20060;-86
2021/10/17 12:22:48;;;;;;;10.82;9.88;;;37.00;99.90;;;;;;5017315;28;20022;-85
2021/10/17 12:25:15;;;;;;;10.48;9.50;;;36.80;99.90;;;;;;5026385;28;20547;-86
2021/10/17 12:27:47;;;;;;;13.23;12.02;;;36.20;99.90;;;;;;5019717;28;20069;-87
2021/10/17 12:30:25;;;;;;;11.27;10.15;;;36.60;99.90;;;;;;5020093;28;20080;-86
2021/10/17 12:32:56;;;;;;;12.00;10.90;;;36.00;99.90;;;;;;5019383;28;20502;-86
2021/10/17 12:35:36;;;;;;;10.15;9.02;;;36.80;99.90;;;;;;5019605;28;20029;-87